createdAt,value
2018-01-21T00:00:18.289Z,6.82
2018-01-21T00:02:46.787Z,6.87
2018-01-21T00:05:15.245Z,6.89
2018-01-21T00:07:43.598Z,6.75
2018-01-21T00:10:11.961Z,6.91
2018-01-21T00:12:40.710Z,6.94
2018-01-21T00:15:09.082Z,6.90
2018-01-21T00:17:37.572Z,7.05
2018-01-21T00:20:06.312Z,6.93
2018-01-21T00:22:41.540Z,6.79
2018-01-21T00:25:10.301Z,6.71
2018-01-21T00:27:38.664Z,6.58
2018-01-21T00:30:07.040Z,6.65
2018-01-21T00:32:35.413Z,6.85
2018-01-21T00:35:03.796Z,6.84
2018-01-21T00:37:32.155Z,6.73
2018-01-21T00:40:00.521Z,6.91
2018-01-21T00:42:28.930Z,6.88
2018-01-21T00:44:57.297Z,6.75
2018-01-21T00:47:25.769Z,6.59
2018-01-21T00:49:54.183Z,6.59
2018-01-21T00:52:22.528Z,6.28
2018-01-21T00:54:50.905Z,6.37
2018-01-21T00:57:19.252Z,6.32
2018-01-21T00:59:48.105Z,6.57
2018-01-21T01:02:16.460Z,6.54
2018-01-21T01:04:44.833Z,6.72
2018-01-21T01:07:13.192Z,6.84
2018-01-21T01:09:41.552Z,6.74
2018-01-21T01:12:10.291Z,6.95
2018-01-21T01:14:38.667Z,6.46
2018-01-21T01:17:07.029Z,6.51
2018-01-21T01:19:35.556Z,6.47
2018-01-21T01:22:03.915Z,6.38
2018-01-21T01:24:32.280Z,6.45
2018-01-21T01:27:00.648Z,6.46
2018-01-21T01:29:29.025Z,6.57
2018-01-21T01:31:57.386Z,6.59
2018-01-21T01:34:25.731Z,6.51
2018-01-21T01:36:54.100Z,6.88
2018-01-21T01:39:22.572Z,7.19
2018-01-21T01:41:50.985Z,7.34
2018-01-21T01:44:19.896Z,7.32
2018-01-21T01:46:48.265Z,7.34
2018-01-21T01:49:17.103Z,7.49
2018-01-21T01:51:45.470Z,7.46
2018-01-21T01:54:13.819Z,7.41
2018-01-21T01:56:42.597Z,7.50
2018-01-21T01:59:11.336Z,7.54
2018-01-21T02:01:39.707Z,7.33
2018-01-21T02:04:08.068Z,7.53
2018-01-21T02:06:36.423Z,7.57
2018-01-21T02:09:05.312Z,7.44
2018-01-21T02:11:33.665Z,7.31
2018-01-21T02:14:02.131Z,7.49
2018-01-21T02:16:30.611Z,7.41
2018-01-21T02:18:59.079Z,7.33
2018-01-21T02:21:27.526Z,7.43
2018-01-21T02:23:55.866Z,7.49
2018-01-21T02:26:24.446Z,7.70
2018-01-21T02:28:52.800Z,7.38
2018-01-21T02:31:21.152Z,7.46
2018-01-21T02:33:49.568Z,7.73
2018-01-21T02:36:17.979Z,7.45
2018-01-21T02:38:46.738Z,7.42
2018-01-21T02:41:15.096Z,7.40
2018-01-21T02:43:43.444Z,7.05
2018-01-21T02:46:11.842Z,7.22
2018-01-21T02:48:40.238Z,7.35
2018-01-21T02:51:08.597Z,7.19
2018-01-21T02:53:36.969Z,7.34
2018-01-21T02:56:05.367Z,7.37
2018-01-21T02:58:33.842Z,7.07
2018-01-21T03:01:02.191Z,6.80
2018-01-21T03:03:30.955Z,6.70
2018-01-21T03:05:59.418Z,6.27
2018-01-21T03:08:27.769Z,6.51
2018-01-21T03:10:56.183Z,6.65
2018-01-21T03:13:24.567Z,6.90
2018-01-21T03:15:53.033Z,7.34
2018-01-21T03:18:21.490Z,6.96
2018-01-21T03:20:49.868Z,6.78
2018-01-21T03:23:18.265Z,6.69
2018-01-21T03:25:46.678Z,7.17
2018-01-21T03:28:15.152Z,6.77
2018-01-21T03:30:43.549Z,6.31
2018-01-21T03:33:12.319Z,6.92
2018-01-21T03:35:41.203Z,7.22
2018-01-21T03:38:09.549Z,6.94
2018-01-21T03:40:37.919Z,7.08
2018-01-21T03:43:06.284Z,7.44
2018-01-21T03:45:34.652Z,7.53
2018-01-21T03:48:03.082Z,7.31
2018-01-21T03:50:31.569Z,7.16
2018-01-21T03:52:59.922Z,7.10
2018-01-21T03:55:28.283Z,6.68
2018-01-21T03:57:56.636Z,7.14
2018-01-21T04:00:25.415Z,7.26
2018-01-21T04:02:53.876Z,7.15
2018-01-21T04:05:22.243Z,7.40
2018-01-21T04:07:50.740Z,7.31
2018-01-21T04:10:19.098Z,7.62
2018-01-21T04:12:47.479Z,7.34
2018-01-21T04:15:15.860Z,6.83
2018-01-21T04:17:44.218Z,6.15
2018-01-21T04:20:12.613Z,6.35
2018-01-21T04:22:40.964Z,6.57
2018-01-21T04:25:09.376Z,6.90
2018-01-21T04:27:37.748Z,6.97
2018-01-21T04:30:06.145Z,7.01
2018-01-21T04:32:35.040Z,7.44
2018-01-21T04:35:03.507Z,6.95
2018-01-21T04:37:31.878Z,6.93
2018-01-21T04:40:00.253Z,7.26
2018-01-21T04:42:28.612Z,7.07
2018-01-21T04:44:56.976Z,7.42
2018-01-21T04:47:25.385Z,7.59
2018-01-21T04:49:53.789Z,7.27
2018-01-21T04:52:22.167Z,7.00
2018-01-21T04:54:50.564Z,6.83
2018-01-21T04:57:18.931Z,7.12
2018-01-21T04:59:47.287Z,6.82
2018-01-21T05:02:15.724Z,6.74
2018-01-21T05:04:44.172Z,6.59
2018-01-21T05:07:12.635Z,6.77
2018-01-21T05:09:41.016Z,6.51
2018-01-21T05:12:09.496Z,7.04
2018-01-21T05:14:37.847Z,7.04
2018-01-21T05:17:06.259Z,6.52
2018-01-21T05:19:34.632Z,6.79
2018-01-21T05:22:03.020Z,6.99
2018-01-21T05:24:31.399Z,6.81
2018-01-21T05:26:59.947Z,6.52
2018-01-21T05:29:28.301Z,6.87
2018-01-21T05:31:57.069Z,6.96
2018-01-21T05:34:25.437Z,6.75
2018-01-21T05:36:53.903Z,7.16
2018-01-21T05:39:22.262Z,7.02
2018-01-21T05:41:50.649Z,6.74
2018-01-21T05:44:19.007Z,7.14
2018-01-21T05:46:47.417Z,7.17
2018-01-21T05:49:15.778Z,7.29
2018-01-21T05:51:44.139Z,6.84
2018-01-21T05:54:12.501Z,6.88
2018-01-21T05:56:41.310Z,7.03
2018-01-21T05:59:10.437Z,5.96
2018-01-21T06:01:38.843Z,6.05
2018-01-21T06:04:07.192Z,6.50
2018-01-21T06:06:35.630Z,6.69
2018-01-21T06:09:03.980Z,6.26
2018-01-21T06:11:32.438Z,6.60
2018-01-21T06:14:00.824Z,6.89
2018-01-21T06:16:29.285Z,6.61
2018-01-21T06:18:57.638Z,6.57
2018-01-21T06:21:26.023Z,6.79
2018-01-21T06:23:54.383Z,6.89
2018-01-21T06:26:22.804Z,7.19
2018-01-21T06:28:51.158Z,6.48
2018-01-21T06:31:19.526Z,6.59
2018-01-21T06:33:47.884Z,6.73
2018-01-21T06:36:16.660Z,6.70
2018-01-21T06:38:45.017Z,6.43
2018-01-21T06:41:13.461Z,6.08
2018-01-21T06:43:41.812Z,5.90
2018-01-21T06:46:10.606Z,5.95
2018-01-21T06:48:39.363Z,6.02
2018-01-21T06:51:07.819Z,5.68
2018-01-21T06:53:36.198Z,6.08
2018-01-21T06:56:04.589Z,6.63
2018-01-21T06:58:32.947Z,6.96
2018-01-21T07:01:01.310Z,6.93
2018-01-21T07:03:29.668Z,6.89
2018-01-21T07:05:58.510Z,7.15
2018-01-21T07:08:26.892Z,7.17
2018-01-21T07:10:55.253Z,6.90
2018-01-21T07:13:23.618Z,6.49
2018-01-21T07:15:52.029Z,6.44
2018-01-21T07:18:20.411Z,6.74
2018-01-21T07:20:48.927Z,6.88
2018-01-21T07:23:17.694Z,6.67
2018-01-21T07:25:46.064Z,6.89
2018-01-21T07:28:14.711Z,6.32
2018-01-21T07:30:43.071Z,6.66
2018-01-21T07:33:11.433Z,7.21
2018-01-21T07:35:40.201Z,7.31
2018-01-21T07:38:08.553Z,7.24
2018-01-21T07:40:36.950Z,7.23
2018-01-21T07:43:05.332Z,6.13
2018-01-21T07:45:33.899Z,6.05
2018-01-21T07:48:02.324Z,5.96
2018-01-21T07:50:31.085Z,6.43
2018-01-21T07:52:59.435Z,6.77
2018-01-21T07:55:27.807Z,7.06
2018-01-21T07:57:56.305Z,7.56
2018-01-21T08:00:24.775Z,7.73
2018-01-21T08:02:53.181Z,8.10
2018-01-21T08:05:21.632Z,8.32
2018-01-21T08:07:50.020Z,8.33
2018-01-21T08:10:18.412Z,8.30
2018-01-21T08:12:46.778Z,8.10
2018-01-21T08:15:15.162Z,7.08
2018-01-21T08:17:43.533Z,7.50
2018-01-21T08:20:11.921Z,7.61
2018-01-21T08:22:40.267Z,7.64
2018-01-21T08:25:08.615Z,7.61
2018-01-21T08:27:37.048Z,7.99
2018-01-21T08:30:05.436Z,7.91
2018-01-21T08:32:33.813Z,8.47
2018-01-21T08:35:07.791Z,8.19
2018-01-21T08:37:41.540Z,8.35
2018-01-21T08:40:15.402Z,8.17
2018-01-21T08:42:43.831Z,8.21
2018-01-21T08:45:12.184Z,8.31
2018-01-21T08:47:40.568Z,7.98
2018-01-21T08:50:08.927Z,7.79
2018-01-21T08:52:37.330Z,7.76
2018-01-21T08:55:05.806Z,8.00
2018-01-21T08:57:34.152Z,7.69
2018-01-21T09:00:02.503Z,7.75
2018-01-21T09:02:31.343Z,7.78
2018-01-21T09:04:59.731Z,7.86
2018-01-21T09:07:28.091Z,7.81
2018-01-21T09:09:56.486Z,8.08
2018-01-21T09:12:24.855Z,8.45
2018-01-21T09:14:53.247Z,8.06
2018-01-21T09:17:21.603Z,8.16
2018-01-21T09:19:49.971Z,8.27
2018-01-21T09:22:18.418Z,8.19
2018-01-21T09:24:46.764Z,7.90
2018-01-21T09:27:15.128Z,8.19
2018-01-21T09:29:43.471Z,8.41
2018-01-21T09:32:12.283Z,7.96
2018-01-21T09:34:40.808Z,7.76
2018-01-21T09:37:09.171Z,7.05
2018-01-21T09:39:37.525Z,7.19
2018-01-21T09:42:05.993Z,7.51
2018-01-21T09:44:34.420Z,7.62
2018-01-21T09:47:02.858Z,8.08
2018-01-21T09:49:31.215Z,7.91
2018-01-21T09:51:59.963Z,8.17
2018-01-21T09:54:28.324Z,8.21
2018-01-21T09:56:56.699Z,8.57
2018-01-21T09:59:25.071Z,8.85
2018-01-21T10:01:53.435Z,8.82
2018-01-21T10:04:21.780Z,9.12
2018-01-21T10:06:50.622Z,9.33
2018-01-21T10:09:19.109Z,8.86
2018-01-21T10:11:47.516Z,9.04
2018-01-21T10:14:15.867Z,8.85
2018-01-21T10:16:44.249Z,8.93
2018-01-21T10:19:12.597Z,9.02
2018-01-21T10:21:41.004Z,8.36
2018-01-21T10:24:09.360Z,8.79
2018-01-21T10:26:37.867Z,8.66
2018-01-21T10:29:06.224Z,9.03
2018-01-21T10:31:34.583Z,9.24
2018-01-21T10:34:03.464Z,9.29
2018-01-21T10:36:32.309Z,9.40
2018-01-21T10:39:00.647Z,9.37
2018-01-21T10:41:29.003Z,8.92
2018-01-21T10:43:57.745Z,8.41
2018-01-21T10:46:26.119Z,8.90
2018-01-21T10:48:54.476Z,9.25
2018-01-21T10:51:22.832Z,9.24
2018-01-21T10:53:51.673Z,8.98
2018-01-21T10:56:20.052Z,8.49
2018-01-21T10:58:48.395Z,8.76
2018-01-21T11:01:16.922Z,9.14
2018-01-21T11:03:45.288Z,9.40
2018-01-21T11:06:13.640Z,9.51
2018-01-21T11:08:42.060Z,9.33
2018-01-21T11:11:10.421Z,9.19
2018-01-21T11:13:38.770Z,9.46
2018-01-21T11:16:07.132Z,9.39
2018-01-21T11:18:35.894Z,9.59
2018-01-21T11:21:04.251Z,9.92
2018-01-21T11:23:32.604Z,10.08
2018-01-21T11:26:00.980Z,10.27
2018-01-21T11:28:29.336Z,10.46
2018-01-21T11:30:58.113Z,10.50
2018-01-21T11:33:26.857Z,10.40
2018-01-21T11:35:55.251Z,10.37
2018-01-21T11:38:23.619Z,10.56
2018-01-21T11:40:52.084Z,10.60
2018-01-21T11:43:20.502Z,10.35
2018-01-21T11:45:49.104Z,10.25
2018-01-21T11:48:17.955Z,10.18
2018-01-21T11:50:46.331Z,10.49
2018-01-21T11:53:14.690Z,10.27
2018-01-21T11:55:43.046Z,10.47
2018-01-21T11:58:11.395Z,10.31
2018-01-21T12:00:39.758Z,10.46
2018-01-21T12:03:08.124Z,10.66
2018-01-21T12:05:36.484Z,10.65
2018-01-21T12:08:04.826Z,10.24
2018-01-21T12:10:33.593Z,10.59
2018-01-21T12:13:02.039Z,10.47
2018-01-21T12:15:30.425Z,10.34
2018-01-21T12:17:58.786Z,10.45
2018-01-21T12:20:27.156Z,10.13
2018-01-21T12:22:55.559Z,10.25
2018-01-21T12:25:23.927Z,10.30
2018-01-21T12:27:52.336Z,10.24
2018-01-21T12:30:20.707Z,10.19
2018-01-21T12:32:49.076Z,10.18
2018-01-21T12:35:17.520Z,10.26
2018-01-21T12:37:45.892Z,10.18
2018-01-21T12:40:14.661Z,9.79
2018-01-21T12:42:43.003Z,9.92
2018-01-21T12:45:11.360Z,9.98
2018-01-21T12:47:39.756Z,10.03
2018-01-21T12:50:08.113Z,10.28
2018-01-21T12:52:36.454Z,10.24
2018-01-21T12:55:05.226Z,10.41
2018-01-21T12:57:33.578Z,9.90
2018-01-21T13:00:01.925Z,9.83
2018-01-21T13:02:30.285Z,9.77
2018-01-21T13:04:59.121Z,10.06
2018-01-21T13:07:27.517Z,9.91
2018-01-21T13:09:55.870Z,10.18
2018-01-21T13:12:24.257Z,10.38
2018-01-21T13:14:52.600Z,9.83
2018-01-21T13:17:21.021Z,10.14
2018-01-21T13:19:49.371Z,10.43
2018-01-21T13:22:17.736Z,10.33
2018-01-21T13:24:46.087Z,10.11
2018-01-21T13:27:14.451Z,10.11
2018-01-21T13:29:42.808Z,10.13
2018-01-21T13:32:11.160Z,10.20
2018-01-21T13:37:14.307Z,10.11
2018-01-21T13:39:42.667Z,10.12
2018-01-21T13:42:11.034Z,9.51
2018-01-21T13:44:39.380Z,9.85
2018-01-21T13:47:08.522Z,9.85
2018-01-21T13:49:38.408Z,10.04
2018-01-21T13:52:08.564Z,10.05
2018-01-21T13:54:37.025Z,9.98
2018-01-21T13:57:07.194Z,9.89
2018-01-21T13:59:36.188Z,10.15
2018-01-21T14:02:04.958Z,10.22
2018-01-21T14:04:35.131Z,10.33
2018-01-21T14:07:05.504Z,10.46
2018-01-21T14:09:34.167Z,10.44
2018-01-21T14:12:04.833Z,10.20
2018-01-21T14:14:33.770Z,9.97
2018-01-21T14:17:02.484Z,10.09
2018-01-21T14:19:31.581Z,9.90
2018-01-21T14:22:01.671Z,10.07
2018-01-21T14:24:30.666Z,10.06
2018-01-21T14:26:59.160Z,9.59
2018-01-21T14:29:28.753Z,9.73
2018-01-21T14:31:57.119Z,9.86
2018-01-21T14:34:26.058Z,9.97
2018-01-21T14:36:54.873Z,9.98
2018-01-21T14:39:23.233Z,9.93
2018-01-21T14:41:54.136Z,9.98
2018-01-21T14:44:22.566Z,9.61
2018-01-21T14:46:51.301Z,9.78
2018-01-21T14:49:21.710Z,9.95
2018-01-21T14:51:50.470Z,10.13
2018-01-21T14:54:18.825Z,9.77
2018-01-21T14:56:47.238Z,9.98
2018-01-21T14:59:16.325Z,10.28
2018-01-21T15:01:46.684Z,10.04
2018-01-21T15:04:15.353Z,9.54
2018-01-21T15:06:45.498Z,9.67
2018-01-21T15:09:14.987Z,9.51
2018-01-21T15:11:43.570Z,9.57
2018-01-21T15:14:13.347Z,9.85
2018-01-21T15:16:43.465Z,9.36
2018-01-21T15:19:12.411Z,9.41
2018-01-21T15:21:41.118Z,9.14
2018-01-21T15:24:11.396Z,9.54
2018-01-21T15:26:40.511Z,9.53
2018-01-21T15:29:09.928Z,9.54
2018-01-21T15:31:38.745Z,9.50
2018-01-21T15:34:07.498Z,8.96
2018-01-21T15:36:36.794Z,9.03
2018-01-21T15:39:05.492Z,8.87
2018-01-21T15:41:33.904Z,9.44
2018-01-21T15:44:02.853Z,9.31
2018-01-21T15:46:33.037Z,9.55
2018-01-21T15:49:02.707Z,9.57
2018-01-21T15:51:32.582Z,9.67
2018-01-21T15:54:01.719Z,9.66
2018-01-21T15:56:31.448Z,9.71
2018-01-21T15:59:00.133Z,9.55
2018-01-21T16:01:29.015Z,9.52
2018-01-21T16:03:57.432Z,9.65
2018-01-21T16:06:26.276Z,9.79
2018-01-21T16:08:54.683Z,9.77
2018-01-21T16:11:23.032Z,9.82
2018-01-21T16:13:51.380Z,9.75
2018-01-21T16:16:19.728Z,9.26
2018-01-21T16:18:48.073Z,9.22
2018-01-21T16:21:16.429Z,8.83
2018-01-21T16:23:44.776Z,9.26
2018-01-21T16:26:13.613Z,9.05
2018-01-21T16:28:41.964Z,9.31
2018-01-21T16:31:10.344Z,9.48
2018-01-21T16:33:38.699Z,9.59
2018-01-21T16:36:07.299Z,9.81
2018-01-21T16:41:43.101Z,9.65
2018-01-21T16:44:11.451Z,9.65
2018-01-21T16:46:39.861Z,9.77
2018-01-21T16:49:08.229Z,9.55
2018-01-21T16:51:36.584Z,9.69
2018-01-21T16:54:04.931Z,9.84
2018-01-21T16:56:33.374Z,9.69
2018-01-21T16:59:01.720Z,9.77
2018-01-21T17:01:30.088Z,9.82
2018-01-21T17:03:58.847Z,9.95
2018-01-21T17:06:27.201Z,10.02
2018-01-21T17:08:55.552Z,10.12
2018-01-21T17:11:23.904Z,9.97
2018-01-21T17:13:52.926Z,9.72
2018-01-21T17:16:21.298Z,9.73
2018-01-21T17:18:49.706Z,9.85
2018-01-21T17:21:18.068Z,9.73
2018-01-21T17:23:46.420Z,9.62
2018-01-21T17:26:15.171Z,9.46
2018-01-21T17:28:43.525Z,9.64
2018-01-21T17:31:11.914Z,9.72
2018-01-21T17:33:40.467Z,9.84
2018-01-21T17:36:10.211Z,9.90
2018-01-21T17:38:38.898Z,10.03
2018-01-21T17:41:08.448Z,10.12
2018-01-21T17:43:37.059Z,9.68
2018-01-21T17:46:05.433Z,9.79
2018-01-21T17:48:33.860Z,9.79
2018-01-21T17:51:02.215Z,9.00
2018-01-21T17:53:30.773Z,8.82
2018-01-21T17:55:59.199Z,8.70
2018-01-21T17:58:27.664Z,8.57
2018-01-21T18:00:56.025Z,8.46
2018-01-21T18:03:24.385Z,8.35
2018-01-21T18:05:52.817Z,8.30
2018-01-21T18:08:21.174Z,8.26
2018-01-21T18:10:49.530Z,8.21
2018-01-21T18:13:17.895Z,8.16
2018-01-21T18:15:46.253Z,8.30
2018-01-21T18:18:15.016Z,8.51
2018-01-21T18:20:43.411Z,8.72
2018-01-21T18:23:11.989Z,8.53
2018-01-21T18:25:40.340Z,8.22
2018-01-21T18:28:08.681Z,8.13
2018-01-21T18:30:37.100Z,8.20
2018-01-21T18:33:05.447Z,8.22
2018-01-21T18:35:33.807Z,8.26
2018-01-21T18:38:02.568Z,8.21
2018-01-21T18:40:31.028Z,8.41
2018-01-21T18:42:59.390Z,8.69
2018-01-21T18:45:27.771Z,8.54
2018-01-21T18:47:56.115Z,8.71
2018-01-21T18:50:24.476Z,8.62
2018-01-21T18:52:53.464Z,8.81
2018-01-21T18:55:21.806Z,8.74
2018-01-21T18:57:50.223Z,8.85
2018-01-21T19:00:18.994Z,8.59
2018-01-21T19:02:47.356Z,8.59
2018-01-21T19:05:15.779Z,8.59
2018-01-21T19:07:44.518Z,8.44
2018-01-21T19:10:12.974Z,8.59
2018-01-21T19:12:41.317Z,8.41
2018-01-21T19:15:10.072Z,8.48
2018-01-21T19:17:38.461Z,8.60
2018-01-21T19:20:06.819Z,8.73
2018-01-21T19:22:35.210Z,8.62
2018-01-21T19:25:03.645Z,8.64
2018-01-21T19:27:31.996Z,8.60
2018-01-21T19:30:00.852Z,8.64
2018-01-21T19:32:29.212Z,8.73
2018-01-21T19:34:57.560Z,8.98
2018-01-21T19:37:26.400Z,8.67
2018-01-21T19:39:54.759Z,8.87
2018-01-21T19:42:28.539Z,9.11
2018-01-21T19:44:56.890Z,8.68
2018-01-21T19:47:25.721Z,8.97
2018-01-21T19:49:54.100Z,8.62
2018-01-21T19:52:22.481Z,8.84
2018-01-21T19:54:50.839Z,8.63
2018-01-21T19:57:19.331Z,8.45
2018-01-21T19:59:47.747Z,8.40
2018-01-21T20:02:16.127Z,8.59
2018-01-21T20:04:44.553Z,8.27
2018-01-21T20:07:12.875Z,8.04
2018-01-21T20:09:41.259Z,8.11
2018-01-21T20:12:09.629Z,7.96
2018-01-21T20:14:37.988Z,7.99
2018-01-21T20:17:06.366Z,7.80
2018-01-21T20:19:34.715Z,7.54
2018-01-21T20:22:03.464Z,7.64
2018-01-21T20:24:31.824Z,7.77
2018-01-21T20:27:00.291Z,7.74
2018-01-21T20:29:28.849Z,7.50
2018-01-21T20:31:57.625Z,7.49
2018-01-21T20:34:26.064Z,7.75
2018-01-21T20:36:54.460Z,7.82
2018-01-21T20:39:22.809Z,7.66
2018-01-21T20:41:51.172Z,8.05
2018-01-21T20:44:19.647Z,7.97
2018-01-21T20:46:48.107Z,8.04
2018-01-21T20:49:16.956Z,8.02
2018-01-21T20:51:50.774Z,7.59
2018-01-21T20:54:24.616Z,7.63
2018-01-21T20:56:53.373Z,7.21
2018-01-21T20:59:21.788Z,7.30
2018-01-21T21:01:50.569Z,7.32
2018-01-21T21:04:19.347Z,7.77
2018-01-21T21:06:47.712Z,7.65
2018-01-21T21:09:16.068Z,7.62
2018-01-21T21:11:44.549Z,7.60
2018-01-21T21:14:12.900Z,8.01
2018-01-21T21:16:41.319Z,7.96
2018-01-21T21:19:09.700Z,7.79
2018-01-21T21:21:38.167Z,8.06
2018-01-21T21:24:06.520Z,7.62
2018-01-21T21:26:34.916Z,7.67
2018-01-21T21:29:03.445Z,7.80
2018-01-21T21:31:31.809Z,7.50
2018-01-21T21:34:00.157Z,7.17
2018-01-21T21:36:28.552Z,6.92
2018-01-21T21:38:56.907Z,6.83
2018-01-21T21:41:25.263Z,6.84
2018-01-21T21:43:53.755Z,7.18
2018-01-21T21:46:22.115Z,7.08
2018-01-21T21:48:50.863Z,7.16
2018-01-21T21:51:19.259Z,6.86
2018-01-21T21:53:47.600Z,6.97
2018-01-21T21:56:15.969Z,7.11
2018-01-21T21:58:44.320Z,7.18
2018-01-21T22:01:13.153Z,7.06
2018-01-21T22:03:41.509Z,7.27
2018-01-21T22:06:09.985Z,6.71
2018-01-21T22:08:38.660Z,7.03
2018-01-21T22:11:09.512Z,7.35
2018-01-21T22:13:40.552Z,7.30
2018-01-21T22:16:09.387Z,7.41
2018-01-21T22:18:37.786Z,7.04
2018-01-21T22:21:06.266Z,7.19
2018-01-21T22:23:35.011Z,6.72
2018-01-21T22:26:03.395Z,7.08
2018-01-21T22:28:31.811Z,6.76
2018-01-21T22:31:00.564Z,6.95
2018-01-21T22:33:28.911Z,7.17
2018-01-21T22:35:57.291Z,7.13
2018-01-21T22:38:25.705Z,7.24
2018-01-21T22:40:54.064Z,7.04
2018-01-21T22:43:22.427Z,6.97
2018-01-21T22:45:50.840Z,6.61
2018-01-21T22:48:19.209Z,6.87
2018-01-21T22:50:47.567Z,6.76
2018-01-21T22:53:15.975Z,6.89
2018-01-21T22:55:44.348Z,7.13
2018-01-21T22:58:12.710Z,7.26
2018-01-21T23:00:41.108Z,7.37
2018-01-21T23:03:09.500Z,7.10
2018-01-21T23:05:37.871Z,7.11
2018-01-21T23:08:06.233Z,6.54
2018-01-21T23:10:34.600Z,7.02
2018-01-21T23:13:02.958Z,6.73
2018-01-21T23:15:31.322Z,6.88
2018-01-21T23:18:00.064Z,6.71
2018-01-21T23:23:43.215Z,6.67
2018-01-21T23:26:11.585Z,6.40
2018-01-21T23:28:39.963Z,6.70
2018-01-21T23:31:08.336Z,6.66
2018-01-21T23:33:36.796Z,6.72
2018-01-21T23:36:05.186Z,6.90
2018-01-21T23:38:33.553Z,6.65
2018-01-21T23:41:01.920Z,6.10
2018-01-21T23:43:30.340Z,6.41
2018-01-21T23:45:58.832Z,6.48
2018-01-21T23:48:28.373Z,6.38
2018-01-21T23:50:58.834Z,6.67
2018-01-21T23:53:27.302Z,6.56
2018-01-21T23:55:56.531Z,6.52
2018-01-21T23:58:24.912Z,6.44
